createdAt,value
2023-03-18T00:02:09.825Z,11.98
2023-03-18T00:04:37.092Z,11.97
2023-03-18T00:07:03.586Z,11.95
2023-03-18T00:09:29.998Z,11.90
2023-03-18T00:11:56.837Z,11.98
2023-03-18T00:14:24.083Z,12.00
2023-03-18T00:16:50.646Z,11.91
2023-03-18T00:19:17.718Z,11.93
2023-03-18T00:21:44.555Z,11.86
2023-03-18T00:24:12.198Z,11.88
2023-03-18T00:26:38.567Z,11.97
2023-03-18T00:29:05.207Z,11.93
2023-03-18T00:31:31.840Z,11.96
2023-03-18T00:33:58.724Z,11.92
2023-03-18T00:36:27.732Z,11.88
2023-03-18T00:38:57.635Z,11.90
2023-03-18T00:41:26.081Z,11.88
2023-03-18T00:43:53.826Z,11.86
2023-03-18T00:46:29.533Z,11.83
2023-03-18T00:49:00.261Z,11.83
2023-03-18T00:51:31.364Z,11.88
2023-03-18T00:54:00.512Z,11.96
2023-03-18T00:56:29.354Z,11.94
2023-03-18T00:58:57.099Z,11.93
2023-03-18T01:01:24.941Z,11.83
2023-03-18T01:03:51.507Z,11.78
2023-03-18T01:06:22.487Z,11.78
2023-03-18T01:08:50.097Z,11.78
2023-03-18T01:11:17.984Z,11.73
2023-03-18T01:13:45.909Z,11.66
2023-03-18T01:16:13.204Z,11.66
2023-03-18T01:18:41.416Z,11.66
2023-03-18T01:21:09.352Z,11.63
2023-03-18T01:23:40.976Z,11.59
2023-03-18T01:26:07.751Z,11.65
2023-03-18T01:28:35.043Z,11.63
2023-03-18T01:31:03.221Z,11.55
2023-03-18T01:33:29.802Z,11.46
2023-03-18T01:35:59.676Z,11.50
2023-03-18T01:38:32.080Z,11.50
2023-03-18T01:41:07.676Z,11.53
2023-03-18T01:43:36.460Z,11.56
2023-03-18T01:46:30.221Z,11.53
2023-03-18T01:48:58.825Z,11.53
2023-03-18T01:51:26.880Z,11.62
2023-03-18T01:53:54.386Z,11.61
2023-03-18T01:56:22.027Z,11.62
2023-03-18T01:58:52.186Z,11.67
2023-03-18T02:01:28.719Z,11.65
2023-03-18T02:03:56.618Z,11.66
2023-03-18T02:06:24.715Z,11.68
2023-03-18T02:09:00.288Z,11.67
2023-03-18T02:11:28.593Z,11.66
2023-03-18T02:14:00.380Z,11.73
2023-03-18T02:16:34.175Z,11.74
2023-03-18T02:19:12.627Z,11.75
2023-03-18T02:21:52.737Z,11.74
2023-03-18T02:24:36.569Z,11.80
2023-03-18T02:27:21.317Z,11.76
2023-03-18T02:29:49.525Z,11.73
2023-03-18T02:32:21.281Z,11.74
2023-03-18T02:34:48.988Z,11.73
2023-03-18T02:37:15.495Z,11.77
2023-03-18T02:39:42.958Z,11.76
2023-03-18T02:42:14.148Z,11.77
2023-03-18T02:44:47.515Z,11.77
2023-03-18T02:47:32.095Z,11.71
2023-03-18T02:49:59.390Z,11.78
2023-03-18T02:52:26.403Z,11.71
2023-03-18T02:54:53.308Z,11.66
2023-03-18T02:57:19.710Z,11.59
2023-03-18T02:59:46.921Z,11.57
2023-03-18T03:02:13.457Z,11.50
2023-03-18T03:04:39.920Z,11.44
2023-03-18T03:07:06.359Z,11.35
2023-03-18T03:09:41.696Z,11.34
2023-03-18T03:12:09.066Z,11.26
2023-03-18T03:14:40.662Z,11.18
2023-03-18T03:17:07.298Z,11.12
2023-03-18T03:19:33.647Z,11.12
2023-03-18T03:22:01.513Z,11.09
2023-03-18T03:24:27.925Z,11.12
2023-03-18T03:26:54.582Z,11.09
2023-03-18T03:29:21.616Z,11.11
2023-03-18T03:31:49.305Z,11.11
2023-03-18T03:34:15.730Z,11.05
2023-03-18T03:36:43.002Z,11.04
2023-03-18T03:39:09.326Z,11.00
2023-03-18T03:41:35.680Z,11.04
2023-03-18T03:44:02.001Z,11.01
2023-03-18T03:46:28.740Z,10.93
2023-03-18T03:48:55.180Z,10.95
2023-03-18T03:51:22.086Z,10.89
2023-03-18T03:53:48.568Z,10.91
2023-03-18T03:56:15.478Z,10.92
2023-03-18T03:58:42.040Z,10.88
2023-03-18T04:01:08.639Z,10.90
2023-03-18T04:03:35.413Z,10.91
2023-03-18T04:06:06.557Z,10.97
2023-03-18T04:08:35.075Z,10.96
2023-03-18T04:11:04.434Z,10.97
2023-03-18T04:13:31.167Z,11.03
2023-03-18T04:15:57.555Z,11.04
2023-03-18T04:18:23.941Z,11.06
2023-03-18T04:20:50.291Z,11.06
2023-03-18T04:23:27.354Z,11.03
2023-03-18T04:25:53.675Z,11.09
2023-03-18T04:28:20.063Z,11.11
2023-03-18T04:30:48.113Z,11.07
2023-03-18T04:33:17.846Z,11.11
2023-03-18T04:35:44.353Z,11.12
2023-03-18T04:38:13.504Z,11.13
2023-03-18T04:40:40.822Z,11.13
2023-03-18T04:43:07.125Z,11.11
2023-03-18T04:45:33.995Z,11.07
2023-03-18T04:48:01.855Z,11.13
2023-03-18T04:50:32.478Z,11.10
2023-03-18T04:53:00.035Z,11.11
2023-03-18T04:55:29.293Z,11.10
2023-03-18T04:57:56.341Z,11.13
2023-03-18T05:00:25.219Z,11.18
2023-03-18T05:02:59.735Z,11.17
2023-03-18T05:05:26.839Z,11.19
2023-03-18T05:07:54.156Z,11.21
2023-03-18T05:10:21.421Z,11.17
2023-03-18T05:12:48.580Z,11.25
2023-03-18T05:15:18.185Z,11.21
2023-03-18T05:17:49.060Z,11.26
2023-03-18T05:20:15.472Z,11.27
2023-03-18T05:22:44.568Z,11.29
2023-03-18T05:25:16.749Z,11.36
2023-03-18T05:27:43.158Z,11.34
2023-03-18T05:30:17.759Z,11.42
2023-03-18T05:32:48.714Z,11.34
2023-03-18T05:35:16.326Z,11.36
2023-03-18T05:37:47.624Z,11.40
2023-03-18T05:40:14.580Z,11.40
2023-03-18T05:42:55.937Z,11.42
2023-03-18T05:45:32.122Z,11.47
2023-03-18T05:47:58.727Z,11.41
2023-03-18T05:50:31.040Z,11.46
2023-03-18T05:52:58.803Z,11.45
2023-03-18T05:55:28.277Z,11.48
2023-03-18T05:57:56.730Z,11.39
2023-03-18T06:00:24.633Z,11.49
2023-03-18T06:02:54.800Z,11.42
2023-03-18T06:05:22.980Z,11.49
2023-03-18T06:07:49.339Z,11.54
2023-03-18T06:10:16.893Z,11.54
2023-03-18T06:12:46.558Z,11.58
2023-03-18T06:15:13.634Z,11.58
2023-03-18T06:17:40.046Z,11.56
2023-03-18T06:20:10.173Z,11.51
2023-03-18T06:22:36.913Z,11.54
2023-03-18T06:25:04.889Z,11.48
2023-03-18T06:27:31.383Z,11.51
2023-03-18T06:30:02.651Z,11.57
2023-03-18T06:32:30.000Z,11.50
2023-03-18T06:34:56.710Z,11.49
2023-03-18T06:37:24.446Z,11.53
2023-03-18T06:39:51.133Z,11.61
2023-03-18T06:42:17.833Z,11.59
2023-03-18T06:44:53.070Z,11.59
2023-03-18T06:47:24.848Z,11.64
2023-03-18T06:49:56.642Z,11.70
2023-03-18T06:52:30.184Z,11.70
2023-03-18T06:55:02.032Z,11.74
2023-03-18T06:57:28.900Z,11.82
2023-03-18T06:59:56.061Z,11.87
2023-03-18T07:02:23.500Z,11.84
2023-03-18T07:04:50.766Z,11.86
2023-03-18T07:07:17.293Z,11.80
2023-03-18T07:09:44.920Z,11.88
2023-03-18T07:12:14.641Z,11.94
2023-03-18T07:14:42.067Z,11.99
2023-03-18T07:17:10.354Z,11.85
2023-03-18T07:19:39.679Z,11.89
2023-03-18T07:22:06.124Z,11.81
2023-03-18T07:24:32.998Z,11.71
2023-03-18T07:26:59.487Z,11.78
2023-03-18T07:29:25.893Z,11.88
2023-03-18T07:31:52.212Z,11.88
2023-03-18T07:34:19.139Z,11.95
2023-03-18T07:36:45.668Z,12.03
2023-03-18T07:39:12.278Z,12.08
2023-03-18T07:41:38.854Z,12.19
2023-03-18T07:44:07.524Z,12.26
2023-03-18T07:46:33.978Z,12.34
2023-03-18T07:49:00.951Z,12.47
2023-03-18T07:51:27.388Z,12.47
2023-03-18T07:53:53.757Z,12.56
2023-03-18T07:56:20.489Z,12.63
2023-03-18T07:58:47.818Z,12.77
2023-03-18T08:01:16.515Z,12.94
2023-03-18T08:03:43.631Z,12.95
2023-03-18T08:06:11.216Z,13.03
2023-03-18T08:08:38.520Z,13.00
2023-03-18T08:11:05.032Z,13.08
2023-03-18T08:13:31.787Z,13.11
2023-03-18T08:15:58.630Z,13.08
2023-03-18T08:18:25.240Z,13.22
2023-03-18T08:20:52.862Z,13.24
2023-03-18T08:23:19.210Z,13.35
2023-03-18T08:25:49.712Z,13.43
2023-03-18T08:28:17.646Z,13.47
2023-03-18T08:30:44.624Z,13.50
2023-03-18T08:33:11.036Z,13.59
2023-03-18T08:35:41.541Z,13.53
2023-03-18T08:38:08.031Z,13.47
2023-03-18T08:40:34.791Z,13.45
2023-03-18T08:43:01.450Z,13.51
2023-03-18T08:45:28.599Z,13.50
2023-03-18T08:47:55.512Z,13.68
2023-03-18T08:50:22.618Z,13.92
2023-03-18T08:52:48.960Z,14.17
2023-03-18T08:55:16.200Z,14.50
2023-03-18T08:57:42.856Z,14.73
2023-03-18T09:00:09.974Z,14.55
2023-03-18T09:02:36.408Z,14.61
2023-03-18T09:05:03.209Z,14.67
2023-03-18T09:07:30.548Z,14.54
2023-03-18T09:09:56.890Z,14.28
2023-03-18T09:12:23.286Z,14.25
2023-03-18T09:14:49.676Z,14.27
2023-03-18T09:17:16.560Z,14.16
2023-03-18T09:19:42.894Z,14.22
2023-03-18T09:22:10.158Z,13.98
2023-03-18T09:24:36.529Z,13.81
2023-03-18T09:27:02.959Z,13.76
2023-03-18T09:29:29.448Z,14.04
2023-03-18T09:31:56.140Z,14.41
2023-03-18T09:34:23.587Z,14.56
2023-03-18T09:36:51.468Z,14.54
2023-03-18T09:39:19.546Z,14.40
2023-03-18T09:42:21.170Z,14.34
2023-03-18T09:44:55.002Z,14.26
2023-03-18T09:47:51.245Z,14.08
2023-03-18T09:50:31.854Z,14.12
2023-03-18T09:53:18.123Z,14.08
2023-03-18T09:55:51.007Z,14.23
2023-03-18T09:58:27.127Z,14.36
2023-03-18T10:01:00.201Z,14.44
2023-03-18T10:03:37.261Z,14.49
2023-03-18T10:06:16.279Z,14.52
2023-03-18T10:09:01.948Z,14.56
2023-03-18T10:11:35.460Z,14.72
2023-03-18T10:14:30.690Z,14.99
2023-03-18T10:17:16.925Z,15.39
2023-03-18T10:19:48.446Z,15.50
2023-03-18T10:22:40.471Z,15.89
2023-03-18T10:25:26.453Z,16.21
2023-03-18T10:28:24.810Z,16.37
2023-03-18T10:31:01.372Z,16.68
2023-03-18T10:33:27.814Z,16.72
2023-03-18T10:36:08.586Z,16.55
2023-03-18T10:38:38.841Z,16.50
2023-03-18T10:41:31.239Z,16.56
2023-03-18T10:44:01.633Z,16.65
2023-03-18T10:46:28.335Z,17.06
2023-03-18T10:49:01.633Z,17.22
2023-03-18T10:51:36.375Z,17.35
2023-03-18T10:54:20.977Z,17.27
2023-03-18T10:56:47.362Z,17.27
2023-03-18T10:59:18.023Z,16.99
2023-03-18T11:01:52.253Z,17.16
2023-03-18T11:04:21.493Z,17.19
2023-03-18T11:07:07.602Z,17.00
2023-03-18T11:09:36.947Z,17.13
2023-03-18T11:12:06.707Z,16.95
2023-03-18T11:14:37.163Z,17.15
2023-03-18T11:17:17.793Z,17.30
2023-03-18T11:19:50.006Z,17.61
2023-03-18T11:22:21.364Z,17.94
2023-03-18T11:25:01.884Z,17.99
2023-03-18T11:27:35.422Z,17.76
2023-03-18T11:30:16.679Z,17.69
2023-03-18T11:33:00.860Z,17.77
2023-03-18T11:35:54.427Z,17.80
2023-03-18T11:38:28.433Z,17.98
2023-03-18T11:41:16.889Z,18.40
2023-03-18T11:44:00.064Z,18.61
2023-03-18T11:46:30.846Z,18.80
2023-03-18T11:48:59.141Z,18.69
2023-03-18T11:51:46.228Z,18.63
2023-03-18T11:54:47.673Z,18.89
2023-03-18T11:57:36.897Z,19.04
2023-03-18T12:00:31.748Z,19.11
2023-03-18T12:03:43.132Z,19.46
2023-03-18T12:06:23.581Z,19.40
2023-03-18T12:09:21.288Z,19.38
2023-03-18T12:12:08.727Z,19.07
2023-03-18T12:14:43.541Z,19.20
2023-03-18T12:17:45.338Z,19.55
2023-03-18T12:20:29.668Z,19.79
2023-03-18T12:23:13.160Z,19.37
2023-03-18T12:26:02.100Z,19.00
2023-03-18T12:28:52.442Z,18.63
2023-03-18T12:31:35.093Z,18.55
2023-03-18T12:34:03.704Z,18.28
2023-03-18T12:36:57.012Z,18.16
2023-03-18T12:39:33.794Z,17.87
2023-03-18T12:42:15.862Z,18.02
2023-03-18T12:45:10.051Z,18.08
2023-03-18T12:47:50.452Z,18.48
2023-03-18T12:50:26.441Z,18.45
2023-03-18T12:53:16.603Z,18.36
2023-03-18T12:55:50.287Z,18.41
2023-03-18T12:58:23.075Z,18.38
2023-03-18T13:00:58.922Z,18.42
2023-03-18T13:03:33.264Z,18.45
2023-03-18T13:06:11.883Z,18.46
2023-03-18T13:09:10.536Z,18.31
2023-03-18T13:12:16.074Z,18.78
2023-03-18T13:14:56.256Z,18.75
2023-03-18T13:17:39.830Z,18.52
2023-03-18T13:20:14.950Z,18.03
2023-03-18T13:22:46.858Z,18.10
2023-03-18T13:25:40.960Z,18.18
2023-03-18T13:28:26.109Z,17.92
2023-03-18T13:30:56.843Z,17.84
2023-03-18T13:33:45.435Z,17.70
2023-03-18T13:36:47.073Z,17.63
2023-03-18T13:39:53.354Z,17.63
2023-03-18T13:42:25.830Z,17.61
2023-03-18T13:45:15.624Z,17.78
2023-03-18T13:47:44.165Z,17.80
2023-03-18T13:50:19.887Z,18.05
2023-03-18T13:52:47.760Z,18.31
2023-03-18T13:55:29.769Z,18.20
2023-03-18T13:58:06.440Z,17.85
2023-03-18T14:00:35.003Z,17.82
2023-03-18T14:03:13.961Z,17.84
2023-03-18T14:05:42.400Z,17.83
2023-03-18T14:08:39.652Z,17.87
2023-03-18T14:11:15.106Z,17.82
2023-03-18T14:13:41.446Z,17.75
2023-03-18T14:16:10.769Z,17.82
2023-03-18T14:18:38.015Z,17.49
2023-03-18T14:21:24.097Z,17.40
2023-03-18T14:24:29.914Z,17.35
2023-03-18T14:26:59.295Z,17.12
2023-03-18T14:29:31.008Z,17.00
2023-03-18T14:32:08.193Z,16.93
2023-03-18T14:34:54.147Z,16.76
2023-03-18T14:37:26.570Z,16.63
2023-03-18T14:39:56.298Z,16.55
2023-03-18T14:42:23.143Z,16.36
2023-03-18T14:44:54.106Z,16.03
2023-03-18T14:47:48.558Z,15.20
2023-03-18T14:50:21.946Z,14.56
2023-03-18T14:52:56.529Z,13.78
2023-03-18T14:55:27.763Z,13.39
2023-03-18T14:57:54.129Z,13.20
2023-03-18T15:00:21.923Z,13.16
2023-03-18T15:03:00.656Z,13.13
2023-03-18T15:05:33.902Z,13.10
2023-03-18T15:08:00.830Z,13.26
2023-03-18T15:10:30.774Z,13.31
2023-03-18T15:13:11.565Z,13.32
2023-03-18T15:15:38.894Z,13.39
2023-03-18T15:18:18.993Z,13.49
2023-03-18T15:20:49.392Z,13.58
2023-03-18T15:23:21.367Z,13.71
2023-03-18T15:25:49.185Z,13.78
2023-03-18T15:28:21.277Z,13.80
2023-03-18T15:30:54.378Z,13.81
2023-03-18T15:33:30.152Z,13.88
2023-03-18T15:36:04.239Z,14.03
2023-03-18T15:38:31.734Z,14.11
2023-03-18T15:41:09.982Z,14.21
2023-03-18T15:43:43.011Z,14.18
2023-03-18T15:46:25.624Z,14.21
2023-03-18T15:48:56.494Z,14.11
2023-03-18T15:51:23.157Z,14.13
2023-03-18T15:53:53.705Z,14.10
2023-03-18T15:56:35.369Z,14.09
2023-03-18T15:59:15.708Z,14.07
2023-03-18T16:01:42.206Z,14.02
2023-03-18T16:04:13.812Z,13.99
2023-03-18T16:06:40.379Z,13.99
2023-03-18T16:09:24.082Z,14.02
2023-03-18T16:11:57.155Z,13.97
2023-03-18T16:14:28.437Z,13.86
2023-03-18T16:16:54.872Z,13.77
2023-03-18T16:19:28.196Z,13.39
2023-03-18T16:21:59.690Z,13.28
2023-03-18T16:24:26.192Z,13.40
2023-03-18T16:26:53.990Z,13.50
2023-03-18T16:29:36.611Z,13.64
2023-03-18T16:32:03.656Z,13.72
2023-03-18T16:34:30.241Z,13.61
2023-03-18T16:36:56.982Z,13.59
2023-03-18T16:39:27.155Z,13.57
2023-03-18T16:41:53.589Z,13.57
2023-03-18T16:44:23.293Z,13.66
2023-03-18T16:46:53.686Z,13.77
2023-03-18T16:49:22.906Z,13.78
2023-03-18T16:51:51.910Z,13.76
2023-03-18T16:54:20.994Z,13.78
2023-03-18T16:56:49.014Z,13.77
2023-03-18T16:59:18.578Z,13.68
2023-03-18T17:01:45.861Z,13.64
2023-03-18T17:04:24.493Z,13.55
2023-03-18T17:06:51.949Z,13.50
2023-03-18T17:09:19.273Z,13.47
2023-03-18T17:11:48.860Z,13.43
2023-03-18T17:14:33.682Z,13.41
2023-03-18T17:17:03.762Z,13.33
2023-03-18T17:19:31.003Z,13.26
2023-03-18T17:21:57.406Z,13.14
2023-03-18T17:24:23.815Z,12.96
2023-03-18T17:26:51.447Z,12.81
2023-03-18T17:29:23.884Z,12.68
2023-03-18T17:31:51.902Z,12.67
2023-03-18T17:34:18.420Z,12.61
2023-03-18T17:36:44.793Z,12.60
2023-03-18T17:39:11.157Z,12.60
2023-03-18T17:41:37.876Z,12.59
2023-03-18T17:44:22.314Z,12.53
2023-03-18T17:46:48.642Z,12.46
2023-03-18T17:49:14.947Z,12.41
2023-03-18T17:51:41.538Z,12.36
2023-03-18T17:54:13.218Z,12.31
2023-03-18T17:56:40.447Z,12.30
2023-03-18T17:59:14.796Z,12.23
2023-03-18T18:01:42.373Z,12.17
2023-03-18T18:04:14.845Z,12.16
2023-03-18T18:06:41.235Z,12.14
2023-03-18T18:09:13.109Z,12.12
2023-03-18T18:11:45.422Z,12.09
2023-03-18T18:14:19.851Z,11.95
2023-03-18T18:16:47.619Z,11.87
2023-03-18T18:19:14.765Z,11.74
2023-03-18T18:21:42.886Z,11.64
2023-03-18T18:24:15.057Z,11.55
2023-03-18T18:26:41.610Z,11.55
2023-03-18T18:29:14.328Z,11.47
2023-03-18T18:31:40.713Z,11.36
2023-03-18T18:34:07.369Z,11.34
2023-03-18T18:36:33.679Z,11.28
2023-03-18T18:39:00.031Z,10.96
2023-03-18T18:41:27.144Z,10.93
2023-03-18T18:43:53.454Z,10.91
2023-03-18T18:46:21.207Z,10.84
2023-03-18T18:48:48.607Z,10.81
2023-03-18T18:51:18.361Z,10.79
2023-03-18T18:53:46.252Z,10.78
2023-03-18T18:56:25.175Z,10.64
2023-03-18T18:58:52.133Z,10.60
2023-03-18T19:01:19.768Z,10.54
2023-03-18T19:03:46.769Z,10.51
2023-03-18T19:06:25.797Z,10.49
2023-03-18T19:08:57.515Z,10.46
2023-03-18T19:11:25.034Z,10.42
2023-03-18T19:13:52.777Z,10.37
2023-03-18T19:16:27.959Z,10.36
2023-03-18T19:18:54.828Z,10.34
2023-03-18T19:21:21.913Z,10.31
2023-03-18T19:23:48.728Z,10.28
2023-03-18T19:26:18.527Z,10.15
2023-03-18T19:28:57.770Z,10.05
2023-03-18T19:31:27.263Z,10.06
2023-03-18T19:33:53.860Z,10.02
2023-03-18T19:36:25.914Z,9.92
2023-03-18T19:38:58.441Z,9.83
2023-03-18T19:41:25.341Z,9.81
2023-03-18T19:43:52.061Z,9.78
2023-03-18T19:46:27.657Z,9.65
2023-03-18T19:48:53.989Z,9.61
2023-03-18T19:51:20.297Z,9.56
2023-03-18T19:53:47.416Z,9.55
2023-03-18T19:56:24.143Z,9.54
2023-03-18T19:58:52.754Z,9.58
2023-03-18T20:01:21.752Z,9.63
2023-03-18T20:03:58.236Z,9.57
2023-03-18T20:06:25.665Z,9.56
2023-03-18T20:08:52.263Z,9.52
2023-03-18T20:11:20.862Z,9.46
2023-03-18T20:13:47.877Z,9.38
2023-03-18T20:16:16.221Z,9.32
2023-03-18T20:18:42.773Z,9.31
2023-03-18T20:21:19.255Z,9.27
2023-03-18T20:23:45.945Z,9.28
2023-03-18T20:26:12.291Z,9.35
2023-03-18T20:28:43.072Z,9.39
2023-03-18T20:31:11.406Z,9.46
2023-03-18T20:33:38.082Z,9.48
2023-03-18T20:36:06.057Z,9.54
2023-03-18T20:38:37.348Z,9.56
2023-03-18T20:41:05.225Z,9.60
2023-03-18T20:43:32.002Z,9.56
2023-03-18T20:46:00.241Z,9.56
2023-03-18T20:48:27.731Z,9.64
2023-03-18T20:50:55.175Z,9.67
2023-03-18T20:53:28.017Z,9.67
2023-03-18T20:55:55.639Z,9.75
2023-03-18T20:58:24.947Z,9.72
2023-03-18T21:00:52.862Z,9.70
2023-03-18T21:03:28.186Z,9.69
2023-03-18T21:05:58.649Z,9.69
2023-03-18T21:08:26.556Z,9.73
2023-03-18T21:10:53.966Z,9.79
2023-03-18T21:13:31.016Z,9.77
2023-03-18T21:15:59.060Z,9.79
2023-03-18T21:18:26.467Z,9.75
2023-03-18T21:20:53.778Z,9.73
2023-03-18T21:23:25.488Z,9.73
2023-03-18T21:25:53.160Z,9.68
2023-03-18T21:28:21.969Z,9.69
2023-03-18T21:30:50.651Z,9.58
2023-03-18T21:33:19.982Z,9.53
2023-03-18T21:35:46.534Z,9.45
2023-03-18T21:38:12.919Z,9.41
2023-03-18T21:40:39.467Z,9.47
2023-03-18T21:43:32.234Z,9.43
2023-03-18T21:45:59.086Z,9.35
2023-03-18T21:48:25.701Z,9.26
2023-03-18T21:50:52.165Z,9.22
2023-03-18T21:53:20.735Z,9.22
2023-03-18T21:55:47.746Z,9.21
2023-03-18T21:58:16.599Z,9.16
2023-03-18T22:00:44.938Z,9.12
2023-03-18T22:03:15.542Z,9.11
2023-03-18T22:05:41.918Z,8.96
2023-03-18T22:08:08.759Z,9.01
2023-03-18T22:10:35.251Z,9.01
2023-03-18T22:13:01.594Z,8.99
2023-03-18T22:15:35.744Z,9.01
2023-03-18T22:18:02.424Z,9.01
2023-03-18T22:20:29.458Z,9.05
2023-03-18T22:22:56.279Z,8.92
2023-03-18T22:25:30.155Z,8.97
2023-03-18T22:28:00.751Z,8.87
2023-03-18T22:30:29.184Z,8.89
2023-03-18T22:32:56.959Z,8.92
2023-03-18T22:35:26.191Z,8.88
2023-03-18T22:37:53.216Z,9.04
2023-03-18T22:40:31.490Z,9.04
2023-03-18T22:43:01.422Z,9.12
2023-03-18T22:45:32.719Z,9.18
2023-03-18T22:48:02.166Z,9.22
2023-03-18T22:50:31.729Z,9.23
2023-03-18T22:53:01.367Z,9.22
2023-03-18T22:55:38.782Z,9.23
2023-03-18T22:58:07.473Z,9.19
2023-03-18T23:00:39.228Z,9.14
2023-03-18T23:03:21.319Z,9.09
2023-03-18T23:05:50.301Z,9.03
2023-03-18T23:08:17.083Z,9.05
2023-03-18T23:10:44.290Z,8.98
2023-03-18T23:13:16.200Z,9.03
2023-03-18T23:15:43.563Z,9.09
2023-03-18T23:18:17.266Z,9.20
2023-03-18T23:20:45.834Z,9.26
2023-03-18T23:23:13.599Z,9.29
2023-03-18T23:25:41.690Z,9.30
2023-03-18T23:28:08.492Z,9.21
2023-03-18T23:30:36.547Z,9.13
2023-03-18T23:33:02.998Z,9.06
2023-03-18T23:35:29.569Z,9.00
2023-03-18T23:37:56.150Z,9.00
2023-03-18T23:40:22.611Z,9.05
2023-03-18T23:42:48.916Z,9.09
2023-03-18T23:45:15.536Z,9.06
2023-03-18T23:47:41.978Z,9.14
2023-03-18T23:50:09.582Z,9.12
2023-03-18T23:52:36.799Z,9.11
2023-03-18T23:55:04.122Z,9.14
2023-03-18T23:57:30.549Z,9.18
2023-03-18T23:59:56.867Z,9.16
